Mansehra Weather



Mansehra's Current Weather

Temprature 5.48o overcast clouds

overcast clouds

Rain: 0 %

Min Temprature5.48o
Max Temprature5.48o
Humidity58
Wind Speed2.38 m/h
Sun Rise07:03:44
Sun Set16:57:47
Current Time: 12-Dec-2019 01:28:05
Lat/Lon: 34.33, 73.2




Mansehra's Geo Location



Mansehra's Weather Forecast

Time Overall Temp Min Temp Max Temp Humidity Wind Speed Rain
12-Dec-2019 (Thu)
02:00:00 overcast clouds 5.480 5.480 5.480 58 2.38 m/h 0 %
05:00:00 overcast clouds 4.830 4.830 4.830 59 2.81 m/h 0 %
08:00:00 overcast clouds 5.630 5.630 5.630 55 2.54 m/h 0 %
11:00:00 light rain 7.550 7.550 7.550 63 1.92 m/h 31 %
14:00:00 light rain 9.730 9.730 9.730 57 2.3 m/h 31 %
17:00:00 light rain 7.040 7.040 7.040 65 0.88 m/h 19 %
20:00:00 overcast clouds 5.800 5.800 5.800 83 1.72 m/h 0 %
23:00:00 light rain 4.900 4.900 4.900 93 1.55 m/h 44 %
13-Dec-2019 (Fri)
02:00:00 light rain 4.500 4.500 4.500 95 1.03 m/h 156 %
05:00:00 light rain 4.040 4.040 4.040 94 0.95 m/h 250 %
08:00:00 light rain 4.370 4.370 4.370 81 1.57 m/h 81 %
11:00:00 light rain 6.560 6.560 6.560 69 1.68 m/h 6 %
14:00:00 light rain 5.980 5.980 5.980 80 1.31 m/h 31 %
17:00:00 light rain 5.400 5.400 5.400 87 0.83 m/h 31 %
20:00:00 light rain 5.100 5.100 5.100 90 1.01 m/h 113 %
23:00:00 light rain 4.510 4.510 4.510 91 1.13 m/h 56 %
14-Dec-2019 (Sat)
02:00:00 light rain 4.660 4.660 4.660 92 1.02 m/h 100 %
05:00:00 light rain 4.120 4.120 4.120 92 1.2 m/h 138 %
08:00:00 light rain 4.180 4.180 4.180 91 1.57 m/h 56 %
11:00:00 light rain 6.910 6.910 6.910 73 0.79 m/h 25 %
14:00:00 light rain 8.850 8.850 8.850 61 0.92 m/h 119 %
17:00:00 light rain 5.460 5.460 5.460 80 1.74 m/h 137 %
20:00:00 light rain 3.700 3.700 3.700 93 1.67 m/h 38 %
23:00:00 light rain 2.910 2.910 2.910 88 2.07 m/h 6 %
15-Dec-2019 (Sun)
02:00:00 broken clouds 3.000 3.000 3.000 76 2.5 m/h 0 %
05:00:00 broken clouds 2.510 2.510 2.510 75 2.22 m/h 0 %
08:00:00 broken clouds 3.010 3.010 3.010 65 2.15 m/h 0 %
11:00:00 scattered clouds 8.870 8.870 8.870 46 1.16 m/h 0 %
14:00:00 clear sky 10.630 10.630 10.630 36 0.89 m/h 0 %
17:00:00 clear sky 6.310 6.310 6.310 49 0.9 m/h 0 %
20:00:00 clear sky 4.440 4.440 4.440 53 1.76 m/h 0 %
23:00:00 clear sky 3.440 3.440 3.440 51 2.01 m/h 0 %
16-Dec-2019 (Mon)
02:00:00 clear sky 2.470 2.470 2.470 49 2.45 m/h 0 %
05:00:00 few clouds 1.920 1.920 1.920 47 2.84 m/h 0 %
08:00:00 scattered clouds 2.640 2.640 2.640 45 3.02 m/h 0 %
11:00:00 few clouds 8.820 8.820 8.820 31 2.13 m/h 0 %
14:00:00 clear sky 10.540 10.540 10.540 29 1.61 m/h 0 %
17:00:00 clear sky 6.050 6.050 6.050 39 2.31 m/h 0 %
20:00:00 clear sky 3.430 3.430 3.430 45 2.97 m/h 0 %
23:00:00 clear sky 1.930 1.930 1.930 39 3.25 m/h 0 %

Famous Cities (61)